Regent, North Dakota
Current Conditions -  °F | °C
As of 2:53 PM on Tuesday 21 Oct 2014 (Local Time) from KHEI Reporting Station
Clear Clear  
Wind Chill: 81°   Ceiling: Unl
Heat Index: 81°   Visibility: 10mi
Dew Point: 43°   Wind: 18mph
Humidity: 26%   Direction: 180°S
Pressure: 29.66"   Gusts: 23mph
Location:  46.42°N, 102.56°W
Report Text: KHEI 212053Z AUTO 18016G20KT 10SM CLR 27/06 A2966 RMK AO2 SLP032 T02720061 56022
Loading
Personal Weather Stations






























Interactive Weather Map New forecast layout! Learn more

10-Day Weather Forecast

Advertisements
Track Severe Weather on mobile